Rawalpindi, Pakistan
Current Conditions -  °F | °C
As of 12:00 AM on Saturday 25 Oct 2014 (Local Time) from OPRN Reporting Station
Few Clouds Few Clouds  
Wind Chill: 63°   Ceiling: Unl
Heat Index: 63°   Visibility: 4mi
Dew Point: 57°   Wind: 0mph
Humidity: 82%   Direction: NA
Pressure: NA   Gusts: NA
Location:  33.6°N, 73.04°E
Report Text: OPRN 241900Z 00000KT 7000 FEW100 17/14 Q1017.2/30.03
Loading
Personal Weather Stations






























Interactive Weather Map
Tropical Storm Tracking
New forecast layout! Learn more

10-Day Weather Forecast

Advertisements
Track Severe Weather on mobile